createdAt,value
2018-12-13T00:00:00.827Z,98471.64
2018-12-13T00:01:09.105Z,98467.88
2018-12-13T00:02:12.878Z,98470.86
2018-12-13T00:03:17.349Z,98469.52
2018-12-13T00:04:20.714Z,98468.16
2018-12-13T00:05:24.232Z,98471.09
2018-12-13T00:06:33.339Z,98464.66
2018-12-13T00:07:34.862Z,98464.38
2018-12-13T00:08:40.756Z,98465.48
2018-12-13T00:09:44.341Z,98466.83
2018-12-13T00:10:48.631Z,98463.59
2018-12-13T00:11:54.239Z,98467.10
2018-12-13T00:12:58.271Z,98463.59
2018-12-13T00:14:01.456Z,98467.63
2018-12-13T00:15:04.443Z,98464.93
2018-12-13T00:16:08.003Z,98460.34
2018-12-13T00:17:12.895Z,98464.38
2018-12-13T00:18:17.133Z,98455.52
2018-12-13T00:19:21.014Z,98463.86
2018-12-13T00:20:25.518Z,98454.45
2018-12-13T00:21:28.792Z,98461.17
2018-12-13T00:22:33.262Z,98457.13
2018-12-13T00:23:37.032Z,98463.31
2018-12-13T00:24:41.334Z,98456.07
2018-12-13T00:25:46.722Z,98454.97
2018-12-13T00:26:52.338Z,98456.07
2018-12-13T00:27:58.187Z,98450.94
2018-12-13T00:29:04.416Z,98456.58
2018-12-13T00:30:11.569Z,98456.85
2018-12-13T00:31:19.827Z,98460.61
2018-12-13T00:32:25.336Z,98451.98
2018-12-13T00:33:37.336Z,98454.96
2018-12-13T00:34:41.830Z,98454.17
2018-12-13T00:35:46.637Z,98451.20
2018-12-13T00:36:49.769Z,98456.57
2018-12-13T00:37:54.321Z,98452.80
2018-12-13T00:38:57.829Z,98457.61
2018-12-13T00:40:00.962Z,98450.34
2018-12-13T00:41:04.010Z,98454.66
2018-12-13T00:42:07.391Z,98448.22
2018-12-13T00:43:11.639Z,98449.83
2018-12-13T00:44:16.148Z,98449.81
2018-12-13T00:45:21.137Z,98454.63
2018-12-13T00:46:26.070Z,98451.67
2018-12-13T00:47:29.609Z,98457.33
2018-12-13T00:48:33.639Z,98455.69
2018-12-13T00:49:42.219Z,98452.99
2018-12-13T00:50:47.402Z,98447.31
2018-12-13T00:51:52.576Z,98447.03
2018-12-13T00:52:55.488Z,98449.71
2018-12-13T00:53:58.653Z,98437.87
2018-12-13T00:55:01.565Z,98436.52
2018-12-13T00:56:04.467Z,98441.59
2018-12-13T00:57:08.591Z,98433.55
2018-12-13T00:58:14.366Z,98443.99
2018-12-13T00:59:18.295Z,98442.95
2018-12-13T01:00:25.828Z,98445.91
2018-12-13T01:01:29.164Z,98446.44
2018-12-13T01:02:33.135Z,98437.33
2018-12-13T01:03:36.403Z,98436.80
2018-12-13T01:04:40.749Z,98443.98
2018-12-13T01:05:44.310Z,98441.58
2018-12-13T01:06:48.205Z,98439.40
2018-12-13T01:07:52.009Z,98449.59
2018-12-13T01:08:55.560Z,98442.87
2018-12-13T01:09:58.807Z,98447.17
2018-12-13T01:11:02.838Z,98443.67
2018-12-13T01:12:06.789Z,98440.17
2018-12-13T01:13:10.201Z,98438.53
2018-12-13T01:14:13.228Z,98444.42
2018-12-13T01:15:16.694Z,98439.33
2018-12-13T01:16:25.114Z,98445.22
2018-12-13T01:17:28.884Z,98437.66
2018-12-13T01:18:32.476Z,98439.83
2018-12-13T01:19:35.853Z,98436.88
2018-12-13T01:20:38.863Z,98437.95
2018-12-13T01:21:41.753Z,98438.48
2018-12-13T01:22:49.568Z,98434.70
2018-12-13T01:23:52.677Z,98432.84
2018-12-13T01:24:56.230Z,98435.53
2018-12-13T01:25:59.701Z,98436.03
2018-12-13T01:27:03.767Z,98431.76
2018-12-13T01:28:07.215Z,98438.74
2018-12-13T01:29:10.463Z,98431.23
2018-12-13T01:30:13.401Z,98433.13
2018-12-13T01:31:17.513Z,98423.17
2018-12-13T01:32:21.376Z,98429.11
2018-12-13T01:33:26.091Z,98428.06
2018-12-13T01:34:31.363Z,98429.64
2018-12-13T01:35:35.539Z,98428.30
2018-12-13T01:36:38.432Z,98428.58
2018-12-13T01:37:41.572Z,98426.73
2018-12-13T01:38:44.459Z,98417.59
2018-12-13T01:39:47.445Z,98432.36
2018-12-13T01:40:52.095Z,98423.77
2018-12-13T01:41:56.950Z,98424.83
2018-12-13T01:42:59.854Z,98424.81
2018-12-13T01:44:03.578Z,98428.29
2018-12-13T01:45:06.641Z,98428.83
2018-12-13T01:46:10.430Z,98430.97
2018-12-13T01:47:13.390Z,98421.06
2018-12-13T01:48:16.660Z,98423.47
2018-12-13T01:49:19.610Z,98423.20
2018-12-13T01:50:22.532Z,98431.25
2018-12-13T01:51:25.502Z,98426.16
2018-12-13T01:52:29.279Z,98427.49
2018-12-13T01:53:32.854Z,98431.78
2018-12-13T01:54:37.647Z,98423.72
2018-12-13T01:55:40.745Z,98427.98
2018-12-13T01:56:45.655Z,98422.61
2018-12-13T01:57:50.523Z,98422.36
2018-12-13T01:58:54.226Z,98422.11
2018-12-13T01:59:59.036Z,98422.38
2018-12-13T02:01:02.248Z,98430.94
2018-12-13T02:02:06.263Z,98423.70
2018-12-13T02:03:09.203Z,98427.95
2018-12-13T02:04:16.792Z,98424.48
2018-12-13T02:05:20.456Z,98431.20
2018-12-13T02:06:25.209Z,98427.72
2018-12-13T02:07:29.256Z,98427.17
2018-12-13T02:08:33.264Z,98426.63
2018-12-13T02:09:37.511Z,98434.95
2018-12-13T02:10:41.082Z,98427.43
2018-12-13T02:11:46.103Z,98431.44
2018-12-13T02:12:50.164Z,98425.53
2018-12-13T02:13:54.896Z,98424.45
2018-12-13T02:14:58.715Z,98432.21
2018-12-13T02:16:04.874Z,98424.95
2018-12-13T02:17:09.651Z,98423.42
2018-12-13T02:18:13.974Z,98431.44
2018-12-13T02:19:17.726Z,98422.59
2018-12-13T02:20:22.524Z,98429.82
2018-12-13T02:21:26.744Z,98435.44
2018-12-13T02:22:32.226Z,98436.23
2018-12-13T02:23:39.331Z,98434.30
2018-12-13T02:24:44.680Z,98432.46
2018-12-13T02:25:48.419Z,98433.26
2018-12-13T02:26:52.900Z,98434.52
2018-12-13T02:27:55.807Z,98429.70
2018-12-13T02:28:59.312Z,98427.55
2018-12-13T02:30:02.907Z,98427.29
2018-12-13T02:31:05.869Z,98430.53
2018-12-13T02:32:09.802Z,98432.13
2018-12-13T02:33:13.318Z,98432.92
2018-12-13T02:34:19.804Z,98425.75
2018-12-13T02:35:23.266Z,98429.47
2018-12-13T02:36:28.531Z,98422.75
2018-12-13T02:37:32.586Z,98426.27
2018-12-13T02:38:36.334Z,98424.68
2018-12-13T02:39:39.556Z,98421.17
2018-12-13T02:40:44.526Z,98423.61
2018-12-13T02:41:48.844Z,98423.56
2018-12-13T02:42:51.725Z,98427.86
2018-12-13T02:43:54.776Z,98424.63
2018-12-13T02:44:58.543Z,98424.34
2018-12-13T02:46:02.993Z,98420.85
2018-12-13T02:47:06.404Z,98420.57
2018-12-13T02:48:11.180Z,98423.27
2018-12-13T02:49:14.264Z,98420.07
2018-12-13T02:50:18.783Z,98420.88
2018-12-13T02:51:21.921Z,98418.23
2018-12-13T02:52:26.313Z,98419.62
2018-12-13T02:53:30.171Z,98413.70
2018-12-13T02:54:35.510Z,98418.53
2018-12-13T02:55:38.519Z,98416.16
2018-12-13T02:56:41.959Z,98418.58
2018-12-13T02:57:45.032Z,98414.31
2018-12-13T02:58:49.137Z,98408.70
2018-12-13T02:59:52.408Z,98412.45
2018-12-13T03:00:56.729Z,98403.79
2018-12-13T03:02:00.571Z,98398.68
2018-12-13T03:03:04.947Z,98399.00
2018-12-13T03:04:08.246Z,98394.69
2018-12-13T03:05:13.274Z,98389.89
2018-12-13T03:06:16.297Z,98395.55
2018-12-13T03:07:24.322Z,98387.50
2018-12-13T03:08:28.241Z,98390.20
2018-12-13T03:09:32.335Z,98387.24
2018-12-13T03:10:37.701Z,98387.22
2018-12-13T03:11:41.877Z,98386.62
2018-12-13T03:12:45.143Z,98387.67
2018-12-13T03:13:48.964Z,98388.50
2018-12-13T03:14:52.569Z,98382.59
2018-12-13T03:15:58.659Z,98385.31
2018-12-13T03:17:03.791Z,98382.92
2018-12-13T03:18:08.311Z,98383.20
2018-12-13T03:19:14.008Z,98382.12
2018-12-13T03:20:17.238Z,98384.55
2018-12-13T03:21:20.437Z,98381.05
2018-12-13T03:22:24.933Z,98384.00
2018-12-13T03:23:28.610Z,98384.54
2018-12-13T03:24:32.127Z,98379.16
2018-12-13T03:25:35.540Z,98379.70
2018-12-13T03:26:38.784Z,98380.24
2018-12-13T03:27:42.321Z,98376.76
2018-12-13T03:28:45.861Z,98382.13
2018-12-13T03:29:50.263Z,98381.09
2018-12-13T03:30:53.820Z,98382.67
2018-12-13T03:31:57.585Z,98384.81
2018-12-13T03:33:00.977Z,98371.11
2018-12-13T03:34:05.236Z,98371.11
2018-12-13T03:35:09.679Z,98376.77
2018-12-13T03:36:14.227Z,98373.80
2018-12-13T03:37:20.865Z,98371.92
2018-12-13T03:38:25.685Z,98369.55
2018-12-13T03:39:29.114Z,98377.33
2018-12-13T03:40:32.335Z,98367.70
2018-12-13T03:41:37.395Z,98369.84
2018-12-13T03:42:42.531Z,98371.72
2018-12-13T03:43:47.147Z,98374.89
2018-12-13T03:44:51.045Z,98372.98
2018-12-13T03:45:54.428Z,98374.30
2018-12-13T03:46:58.691Z,98374.56
2018-12-13T03:48:01.928Z,98371.90
2018-12-13T03:49:04.912Z,98378.09
2018-12-13T03:50:08.325Z,98370.03
2018-12-13T03:51:11.429Z,98371.09
2018-12-13T03:52:14.787Z,98366.02
2018-12-13T03:53:17.710Z,98371.90
2018-12-13T03:54:20.868Z,98363.27
2018-12-13T03:55:24.336Z,98359.53
2018-12-13T03:56:27.880Z,98363.33
2018-12-13T03:57:31.174Z,98360.64
2018-12-13T03:58:34.023Z,98353.06
2018-12-13T03:59:37.137Z,98355.42
2018-12-13T04:00:40.101Z,98354.34
2018-12-13T04:01:43.332Z,98353.48
2018-12-13T04:02:46.525Z,98347.84
2018-12-13T04:03:51.269Z,98342.47
2018-12-13T04:04:54.527Z,98347.08
2018-12-13T04:05:57.637Z,98349.76
2018-12-13T04:07:00.753Z,98347.64
2018-12-13T04:08:03.744Z,98338.53
2018-12-13T04:09:07.030Z,98340.70
2018-12-13T04:10:09.957Z,98342.59
2018-12-13T04:11:13.702Z,98337.71
2018-12-13T04:12:16.769Z,98337.41
2018-12-13T04:13:19.780Z,98341.98
2018-12-13T04:14:23.231Z,98350.30
2018-12-13T04:15:27.316Z,98347.61
2018-12-13T04:16:30.805Z,98342.75
2018-12-13T04:17:34.344Z,98350.27
2018-12-13T04:18:37.578Z,98341.92
2018-12-13T04:19:40.817Z,98345.94
2018-12-13T04:20:44.224Z,98343.76
2018-12-13T04:21:47.745Z,98343.53
2018-12-13T04:22:52.028Z,98339.25
2018-12-13T04:23:55.308Z,98339.75
2018-12-13T04:24:58.852Z,98338.17
2018-12-13T04:26:02.100Z,98337.63
2018-12-13T04:27:05.672Z,98338.17
2018-12-13T04:28:09.968Z,98346.22
2018-12-13T04:29:13.562Z,98337.07
2018-12-13T04:30:17.177Z,98333.61
2018-12-13T04:31:21.851Z,98331.20
2018-12-13T04:32:25.163Z,98333.88
2018-12-13T04:33:29.969Z,98334.09
2018-12-13T04:34:33.040Z,98326.02
2018-12-13T04:35:36.539Z,98329.51
2018-12-13T04:36:40.264Z,98323.85
2018-12-13T04:37:43.765Z,98329.22
2018-12-13T04:38:47.161Z,98325.77
2018-12-13T04:39:50.789Z,98327.88
2018-12-13T04:40:54.109Z,98326.78
2018-12-13T04:41:57.435Z,98317.13
2018-12-13T04:43:00.572Z,98321.45
2018-12-13T04:44:03.784Z,98319.52
2018-12-13T04:45:06.971Z,98322.48
2018-12-13T04:46:10.679Z,98323.54
2018-12-13T04:47:14.112Z,98320.56
2018-12-13T04:48:17.443Z,98317.89
2018-12-13T04:49:21.326Z,98321.11
2018-12-13T04:50:24.726Z,98317.59
2018-12-13T04:51:28.257Z,98315.20
2018-12-13T04:52:31.776Z,98320.08
2018-12-13T04:53:35.181Z,98313.61
2018-12-13T04:54:38.466Z,98319.24
2018-12-13T04:55:42.834Z,98309.56
2018-12-13T04:56:46.146Z,98314.70
2018-12-13T04:57:49.496Z,98312.81
2018-12-13T04:58:53.447Z,98309.33
2018-12-13T04:59:57.336Z,98313.59
2018-12-13T05:01:01.282Z,98315.78
2018-12-13T05:02:05.325Z,98309.32
2018-12-13T05:03:09.489Z,98306.05
2018-12-13T05:04:12.752Z,98310.34
2018-12-13T05:05:16.069Z,98311.94
2018-12-13T05:06:20.462Z,98304.97
2018-12-13T05:07:24.692Z,98296.66
2018-12-13T05:08:28.484Z,98298.81
2018-12-13T05:09:32.696Z,98299.34
2018-12-13T05:10:36.055Z,98300.14
2018-12-13T05:11:40.222Z,98297.75
2018-12-13T05:12:43.606Z,98302.33
2018-12-13T05:13:49.375Z,98300.98
2018-12-13T05:14:52.658Z,98298.27
2018-12-13T05:15:56.043Z,98293.43
2018-12-13T05:16:59.598Z,98291.31
2018-12-13T05:18:03.007Z,98299.86
2018-12-13T05:19:06.242Z,98298.27
2018-12-13T05:20:09.604Z,98297.97
2018-12-13T05:21:12.719Z,98298.48
2018-12-13T05:22:16.088Z,98298.74
2018-12-13T05:23:19.470Z,98299.01
2018-12-13T05:24:23.002Z,98296.61
2018-12-13T05:25:27.138Z,98296.86
2018-12-13T05:26:30.448Z,98295.78
2018-12-13T05:27:34.104Z,98293.63
2018-12-13T05:28:37.247Z,98290.70
2018-12-13T05:29:40.134Z,98285.33
2018-12-13T05:30:44.555Z,98289.07
2018-12-13T05:31:48.731Z,98288.27
2018-12-13T05:32:52.433Z,98287.97
2018-12-13T05:33:55.996Z,98284.73
2018-12-13T05:34:59.155Z,98286.08
2018-12-13T05:36:02.841Z,98295.45
2018-12-13T05:37:07.356Z,98284.98
2018-12-13T05:38:11.659Z,98277.22
2018-12-13T05:39:15.507Z,98282.84
2018-12-13T05:41:37.347Z,98274.80
2018-12-13T05:42:41.039Z,98275.84
2018-12-13T05:43:48.599Z,98272.61
2018-12-13T05:44:53.245Z,98275.56
2018-12-13T05:45:56.876Z,98277.96
2018-12-13T05:47:00.148Z,98272.59
2018-12-13T05:48:04.614Z,98277.92
2018-12-13T05:49:09.089Z,98273.89
2018-12-13T05:50:12.667Z,98276.59
2018-12-13T05:51:16.112Z,98271.78
2018-12-13T05:52:20.448Z,98278.44
2018-12-13T05:53:23.909Z,98286.17
2018-12-13T05:54:28.316Z,98278.93
2018-12-13T05:55:33.404Z,98283.53
2018-12-13T05:56:37.508Z,98283.56
2018-12-13T05:57:40.509Z,98277.92
2018-12-13T05:58:44.020Z,98277.92
2018-12-13T05:59:48.178Z,98274.47
2018-12-13T06:00:51.601Z,98280.91
2018-12-13T06:01:54.491Z,98276.33
2018-12-13T06:02:58.248Z,98282.48
2018-12-13T06:04:01.139Z,98285.11
2018-12-13T06:05:04.001Z,98284.83
2018-12-13T06:06:07.316Z,98287.79
2018-12-13T06:07:11.417Z,98279.41
2018-12-13T06:08:14.459Z,98281.52
2018-12-13T06:09:19.316Z,98285.53
2018-12-13T06:10:22.166Z,98283.93
2018-12-13T06:11:25.068Z,98279.97
2018-12-13T06:12:28.430Z,98288.88
2018-12-13T06:13:32.776Z,98283.49
2018-12-13T06:14:35.881Z,98281.01
2018-12-13T06:15:39.603Z,98288.48
2018-12-13T06:16:43.601Z,98283.38
2018-12-13T06:17:46.462Z,98284.72
2018-12-13T06:18:50.351Z,98280.72
2018-12-13T06:19:53.424Z,98283.44
2018-12-13T06:20:56.397Z,98284.98
2018-12-13T06:22:00.159Z,98288.53
2018-12-13T06:23:04.004Z,98285.51
2018-12-13T06:24:07.485Z,98287.63
2018-12-13T06:25:10.426Z,98289.52
2018-12-13T06:26:13.310Z,98284.70
2018-12-13T06:27:20.015Z,98287.11
2018-12-13T06:28:23.133Z,98291.88
2018-12-13T06:29:26.650Z,98289.48
2018-12-13T06:45:03.297Z,98307.20
2018-12-13T06:46:06.760Z,98306.66
2018-12-13T06:47:09.790Z,98315.26
2018-12-13T06:48:12.985Z,98304.51
2018-12-13T06:49:16.649Z,98306.62
2018-12-13T06:50:20.394Z,98305.34
2018-12-13T06:51:24.307Z,98303.70
2018-12-13T06:52:27.152Z,98310.92
2018-12-13T06:53:31.186Z,98294.90
2018-12-13T06:54:34.360Z,98302.22
2018-12-13T06:55:38.157Z,98299.31
2018-12-13T06:56:41.268Z,98302.50
2018-12-13T06:57:44.294Z,98301.05
2018-12-13T06:58:47.912Z,98306.88
2018-12-13T06:59:51.004Z,98308.44
2018-12-13T07:00:53.953Z,98307.28
2018-12-13T07:01:57.461Z,98305.44
2018-12-13T07:03:00.365Z,98313.44
2018-12-13T07:04:03.825Z,98307.00
2018-12-13T07:05:06.786Z,98314.65
2018-12-13T07:06:10.938Z,98316.51
2018-12-13T07:07:13.981Z,98309.82
2018-12-13T07:08:17.229Z,98311.07
2018-12-13T07:09:21.450Z,98316.45
2018-12-13T07:10:24.394Z,98316.65
2018-12-13T07:11:29.787Z,98319.30
2018-12-13T07:12:33.615Z,98315.34
2018-12-13T07:13:36.678Z,98317.34
2018-12-13T07:14:40.689Z,98321.84
2018-12-13T07:15:44.458Z,98315.86
2018-12-13T07:16:49.009Z,98318.81
2018-12-13T07:17:52.426Z,98318.59
2018-12-13T07:18:55.593Z,98312.21
2018-12-13T07:19:59.311Z,98315.15
2018-12-13T07:21:03.400Z,98316.16
2018-12-13T07:22:06.412Z,98315.27
2018-12-13T07:23:09.690Z,98317.20
2018-12-13T07:24:13.900Z,98314.25
2018-12-13T07:25:16.944Z,98317.78
2018-12-13T07:26:20.069Z,98311.11
2018-12-13T07:27:24.557Z,98310.31
2018-12-13T07:28:31.592Z,98307.94
2018-12-13T07:29:35.901Z,98307.14
2018-12-13T07:30:38.985Z,98304.95
2018-12-13T07:31:41.985Z,98308.92
2018-12-13T07:32:45.620Z,98301.51
2018-12-13T07:33:49.526Z,98298.00
2018-12-13T07:35:01.142Z,98299.89
2018-12-13T07:36:03.537Z,98303.58
2018-12-13T07:37:08.315Z,98299.32
2018-12-13T07:38:14.268Z,98297.19
2018-12-13T07:39:16.740Z,98294.23
2018-12-13T07:40:19.734Z,98290.20
2018-12-13T07:41:22.728Z,98294.86
2018-12-13T07:42:25.954Z,98291.13
2018-12-13T07:43:29.097Z,98293.52
2018-12-13T07:44:32.282Z,98290.84
2018-12-13T07:45:35.762Z,98300.03
2018-12-13T07:46:38.784Z,98299.84
2018-12-13T07:47:43.012Z,98296.95
2018-12-13T07:48:46.299Z,98292.41
2018-12-13T07:49:49.337Z,98296.13
2018-12-13T07:50:52.302Z,98292.08
2018-12-13T07:51:55.728Z,98294.30
2018-12-13T07:52:58.673Z,98295.39
2018-12-13T07:54:09.351Z,98287.11
2018-12-13T07:55:14.023Z,98291.98
2018-12-13T07:56:17.039Z,98285.87
2018-12-13T07:57:20.002Z,98285.87
2018-12-13T07:58:23.515Z,98291.47
2018-12-13T07:59:26.494Z,98284.33
2018-12-13T08:00:29.526Z,98285.16
2018-12-13T08:01:32.678Z,98291.36
2018-12-13T08:02:35.612Z,98285.23
2018-12-13T08:03:38.503Z,98283.30
2018-12-13T08:04:41.667Z,98288.72
2018-12-13T08:05:44.550Z,98295.20
2018-12-13T08:06:48.075Z,98284.50
2018-12-13T08:07:51.057Z,98296.05
2018-12-13T08:08:54.017Z,98290.71
2018-12-13T08:09:57.016Z,98294.75
2018-12-13T08:11:00.355Z,98286.44
2018-12-13T08:12:03.929Z,98282.73
2018-12-13T08:13:06.958Z,98288.09
2018-12-13T08:14:10.717Z,98288.11
2018-12-13T08:15:13.674Z,98288.91
2018-12-13T08:16:17.196Z,98287.30
2018-12-13T08:17:21.664Z,98284.82
2018-12-13T08:18:24.817Z,98288.36
2018-12-13T08:19:27.708Z,98296.20
2018-12-13T08:20:32.286Z,98293.26
2018-12-13T08:21:35.209Z,98286.04
2018-12-13T08:22:38.305Z,98293.79
2018-12-13T08:23:41.579Z,98285.77
2018-12-13T08:24:45.108Z,98292.49
2018-12-13T08:25:47.989Z,98290.39
2018-12-13T08:26:50.866Z,98292.86
2018-12-13T08:27:55.258Z,98288.28
2018-12-13T08:28:58.115Z,98290.97
2018-12-13T08:30:01.338Z,98291.52
2018-12-13T08:31:05.370Z,98293.43
2018-12-13T08:32:09.616Z,98297.70
2018-12-13T08:33:12.565Z,98295.56
2018-12-13T08:34:15.832Z,98304.69
2018-12-13T08:35:18.739Z,98292.05
2018-12-13T08:36:24.104Z,98295.84
2018-12-13T08:37:26.967Z,98297.73
2018-12-13T08:38:29.906Z,98294.23
2018-12-13T08:39:33.993Z,98295.33
2018-12-13T08:40:37.393Z,98291.81
2018-12-13T08:41:40.334Z,98297.12
2018-12-13T08:42:43.739Z,98299.02
2018-12-13T08:43:46.690Z,98290.67
2018-12-13T08:44:49.675Z,98299.50
2018-12-13T08:45:52.587Z,98301.09
2018-12-13T08:46:57.267Z,98300.59
2018-12-13T08:48:00.291Z,98297.62
2018-12-13T08:49:03.718Z,98298.66
2018-12-13T08:50:07.435Z,98300.28
2018-12-13T08:51:10.420Z,98301.04
2018-12-13T08:52:13.834Z,98311.48
2018-12-13T08:53:16.952Z,98305.06
2018-12-13T08:54:19.883Z,98299.09
2018-12-13T08:55:23.037Z,98305.12
2018-12-13T08:56:27.567Z,98300.55
2018-12-13T08:57:30.466Z,98290.38
2018-12-13T08:58:33.332Z,98298.95
2018-12-13T08:59:36.205Z,98297.01
2018-12-13T09:00:39.674Z,98302.85
2018-12-13T09:01:43.760Z,98307.66
2018-12-13T09:02:46.664Z,98303.13
2018-12-13T09:03:49.538Z,98303.17
2018-12-13T09:04:52.516Z,98308.33
2018-12-13T09:05:56.257Z,98307.81
2018-12-13T09:07:00.170Z,98304.61
2018-12-13T09:08:04.990Z,98313.92
2018-12-13T09:09:07.817Z,98311.81
2018-12-13T09:10:10.570Z,98313.27
2018-12-13T09:11:13.747Z,98311.13
2018-12-13T09:12:20.925Z,98300.42
2018-12-13T09:13:24.334Z,98300.03
2018-12-13T09:14:29.275Z,98297.34
2018-12-13T09:15:32.821Z,98307.14
2018-12-13T09:16:36.200Z,98310.96
2018-12-13T09:17:39.480Z,98296.36
2018-12-13T09:18:43.019Z,98304.72
2018-12-13T09:19:49.300Z,98298.48
2018-12-13T09:20:52.104Z,98303.08
2018-12-13T09:21:54.839Z,98304.40
2018-12-13T09:22:59.149Z,98296.63
2018-12-13T09:24:02.680Z,98297.42
2018-12-13T09:25:05.966Z,98305.00
2018-12-13T09:26:10.149Z,98303.68
2018-12-13T09:27:13.472Z,98299.51
2018-12-13T09:28:16.262Z,98303.33
2018-12-13T09:29:19.086Z,98304.34
2018-12-13T09:30:22.548Z,98305.94
2018-12-13T09:31:25.317Z,98305.84
2018-12-13T09:32:28.484Z,98308.02
2018-12-13T09:33:32.322Z,98304.27
2018-12-13T09:34:35.722Z,98306.73
2018-12-13T09:35:38.488Z,98297.06
2018-12-13T09:36:42.321Z,98306.09
2018-12-13T09:37:47.711Z,98306.64
2018-12-13T09:38:51.382Z,98311.00
2018-12-13T09:39:54.445Z,98312.81
2018-12-13T09:40:57.202Z,98304.53
2018-12-13T09:41:59.994Z,98297.80
2018-12-13T09:43:03.851Z,98315.00
2018-12-13T09:44:09.840Z,98312.81
2018-12-13T09:45:12.592Z,98311.16
2018-12-13T09:46:15.494Z,98309.78
2018-12-13T09:47:18.996Z,98308.97
2018-12-13T09:48:21.749Z,98312.25
2018-12-13T09:49:24.580Z,98313.84
2018-12-13T09:50:27.762Z,98317.91
2018-12-13T09:51:30.547Z,98316.34
2018-12-13T09:52:33.352Z,98325.48
2018-12-13T09:53:36.331Z,98312.31
2018-12-13T09:54:39.075Z,98312.52
2018-12-13T09:55:41.864Z,98304.53
2018-12-13T09:56:45.110Z,98315.21
2018-12-13T09:57:48.207Z,98312.50
2018-12-13T09:58:52.029Z,98314.68
2018-12-13T09:59:54.857Z,98318.47
2018-12-13T10:00:59.317Z,98311.33
2018-12-13T10:02:05.658Z,98312.45
2018-12-13T10:03:09.772Z,98318.45
2018-12-13T10:04:12.533Z,98315.53
2018-12-13T10:05:15.359Z,98307.81
2018-12-13T10:06:18.222Z,98313.20
2018-12-13T10:07:21.074Z,98316.98
2018-12-13T10:08:23.915Z,98313.08
2018-12-13T10:09:26.729Z,98317.05
2018-12-13T10:10:30.516Z,98313.30
2018-12-13T10:11:35.152Z,98310.09
2018-12-13T10:12:38.104Z,98302.33
2018-12-13T10:13:41.092Z,98310.05
2018-12-13T10:14:44.453Z,98307.29
2018-12-13T10:15:47.266Z,98298.99
2018-12-13T10:16:50.193Z,98316.94
2018-12-13T10:17:53.488Z,98314.04
2018-12-13T10:18:56.228Z,98308.41
2018-12-13T10:19:58.982Z,98315.41
2018-12-13T10:21:02.729Z,98313.36
2018-12-13T10:22:11.598Z,98312.53
2018-12-13T10:23:11.206Z,98305.74
2018-12-13T10:24:14.087Z,98303.34
2018-12-13T10:25:17.087Z,98296.58
2018-12-13T10:26:23.412Z,98297.19
2018-12-13T10:27:26.716Z,98300.80
2018-12-13T10:28:29.591Z,98294.23
2018-12-13T10:29:32.678Z,98285.59
2018-12-13T10:30:35.427Z,98289.33
2018-12-13T10:31:39.088Z,98282.09
2018-12-13T10:32:42.347Z,98283.16
2018-12-13T10:33:45.420Z,98279.13
2018-12-13T10:34:50.029Z,98282.38
2018-12-13T10:35:53.490Z,98283.77
2018-12-13T10:36:58.363Z,98279.03
2018-12-13T10:38:02.377Z,98280.48
2018-12-13T10:39:05.218Z,98274.84
2018-12-13T10:40:08.426Z,98279.09
2018-12-13T10:41:11.264Z,98279.06
2018-12-13T10:42:14.049Z,98261.94
2018-12-13T10:43:16.796Z,98266.78
2018-12-13T10:44:24.413Z,98269.16
2018-12-13T10:45:28.444Z,98263.59
2018-12-13T10:46:31.422Z,98258.84
2018-12-13T10:47:35.238Z,98264.55
2018-12-13T10:48:38.118Z,98270.33
2018-12-13T10:49:41.504Z,98272.16
2018-12-13T10:50:44.324Z,98266.84
2018-12-13T10:51:48.343Z,98268.48
2018-12-13T10:52:51.606Z,98266.51
2018-12-13T10:53:54.376Z,98265.33
2018-12-13T10:54:57.146Z,98262.72
2018-12-13T10:55:59.926Z,98259.86
2018-12-13T10:57:03.399Z,98260.84
2018-12-13T10:58:08.271Z,98255.50
2018-12-13T10:59:13.266Z,98261.11
2018-12-13T11:00:21.041Z,98253.53
2018-12-13T11:01:28.737Z,98249.63
2018-12-13T11:02:34.734Z,98250.17
2018-12-13T11:03:43.452Z,98248.69
2018-12-13T11:04:47.396Z,98243.94
2018-12-13T11:05:52.335Z,98240.33
2018-12-13T11:06:55.216Z,98238.35
2018-12-13T11:07:58.678Z,98237.92
2018-12-13T11:09:03.418Z,98242.13
2018-12-13T11:10:06.369Z,98236.89
2018-12-13T11:11:09.828Z,98239.83
2018-12-13T11:12:13.234Z,98236.25
2018-12-13T11:13:16.116Z,98230.09
2018-12-13T11:14:19.574Z,98231.47
2018-12-13T11:15:22.504Z,98243.94
2018-12-13T11:16:25.699Z,98228.52
2018-12-13T11:17:29.435Z,98231.11
2018-12-13T11:18:34.003Z,98224.82
2018-12-13T11:19:37.479Z,98225.81
2018-12-13T11:20:40.383Z,98221.49
2018-12-13T11:21:44.147Z,98227.03
2018-12-13T11:22:48.812Z,98221.16
2018-12-13T11:23:51.779Z,98222.80
2018-12-13T11:24:55.546Z,98222.05
2018-12-13T11:26:00.957Z,98216.95
2018-12-13T11:27:03.777Z,98211.78
2018-12-13T11:28:08.091Z,98207.34
2018-12-13T11:29:11.089Z,98209.34
2018-12-13T11:42:58.304Z,98188.91
2018-12-13T11:45:12.168Z,98193.36
2018-12-13T11:46:15.763Z,98198.23
2018-12-13T11:47:19.835Z,98194.92
2018-12-13T11:48:24.536Z,98186.05
2018-12-13T11:49:28.293Z,98197.06
2018-12-13T11:50:31.432Z,98195.38
2018-12-13T11:51:34.330Z,98190.62
2018-12-13T11:52:37.931Z,98189.14
2018-12-13T11:53:41.248Z,98189.34
2018-12-13T11:54:46.339Z,98184.22
2018-12-13T11:55:51.917Z,98174.45
2018-12-13T11:56:54.885Z,98178.98
2018-12-13T11:57:57.907Z,98173.73
2018-12-13T11:59:01.529Z,98177.84
2018-12-13T12:00:04.537Z,98176.78
2018-12-13T12:01:07.835Z,98169.67
2018-12-13T12:02:11.555Z,98170.67
2018-12-13T12:03:14.404Z,98172.58
2018-12-13T12:04:18.471Z,98160.91
2018-12-13T12:05:22.218Z,98163.95
2018-12-13T12:06:25.070Z,98167.16
2018-12-13T12:07:28.321Z,98166.97
2018-12-13T12:08:32.168Z,98170.03
2018-12-13T12:09:34.975Z,98164.77
2018-12-13T12:10:37.843Z,98157.50
2018-12-13T12:11:41.577Z,98160.64
2018-12-13T12:12:45.156Z,98155.67
2018-12-13T12:13:48.421Z,98160.72
2018-12-13T12:14:51.393Z,98159.80
2018-12-13T12:15:54.740Z,98165.34
2018-12-13T12:16:57.569Z,98168.88
2018-12-13T12:18:01.170Z,98175.80
2018-12-13T12:19:04.683Z,98171.23
2018-12-13T12:20:08.653Z,98166.58
2018-12-13T12:21:11.532Z,98163.85
2018-12-13T12:22:16.276Z,98163.16
2018-12-13T12:23:20.715Z,98158.75
2018-12-13T12:24:24.486Z,98149.09
2018-12-13T12:25:27.684Z,98144.03
2018-12-13T12:26:30.753Z,98151.58
2018-12-13T12:27:34.270Z,98162.48
2018-12-13T12:28:37.137Z,98156.50
2018-12-13T12:29:40.714Z,98154.54
2018-12-13T12:30:47.230Z,98149.84
2018-12-13T12:31:52.410Z,98149.34
2018-12-13T12:32:55.235Z,98152.50
2018-12-13T12:33:58.895Z,98154.83
2018-12-13T12:35:03.531Z,98133.78
2018-12-13T12:36:06.332Z,98157.50
2018-12-13T12:37:09.414Z,98156.03
2018-12-13T12:38:12.616Z,98158.53
2018-12-13T12:39:18.612Z,98159.65
2018-12-13T12:40:21.767Z,98152.92
2018-12-13T12:41:25.684Z,98162.41
2018-12-13T12:42:29.806Z,98159.04
2018-12-13T12:43:32.669Z,98162.16
2018-12-13T12:44:38.294Z,98160.80
2018-12-13T12:45:42.229Z,98138.94
2018-12-13T12:46:45.107Z,98142.47
2018-12-13T12:47:49.169Z,98147.94
2018-12-13T12:48:52.047Z,98147.63
2018-12-13T12:49:55.100Z,98140.69
2018-12-13T12:50:58.420Z,98136.55
2018-12-13T12:52:01.724Z,98143.48
2018-12-13T12:53:05.618Z,98138.64
2018-12-13T12:54:08.611Z,98139.20
2018-12-13T12:55:11.449Z,98142.80
2018-12-13T12:56:16.067Z,98133.61
2018-12-13T12:57:21.372Z,98127.27
2018-12-13T12:58:29.295Z,98134.33